sensor_id;sensor_type;location;lat;lon;timestamp;P1;durP1;ratioP1;P2;durP2;ratioP2
19521;SDS011;9905;52.126;5.596;2022-08-23T00:00:49;8.57;;;7.70;;
19521;SDS011;9905;52.126;5.596;2022-08-23T00:03:15;7.43;;;6.90;;
19521;SDS011;9905;52.126;5.596;2022-08-23T00:05:42;7.97;;;7.38;;
19521;SDS011;9905;52.126;5.596;2022-08-23T00:08:10;8.38;;;7.72;;
19521;SDS011;9905;52.126;5.596;2022-08-23T00:10:37;8.05;;;7.47;;
19521;SDS011;9905;52.126;5.596;2022-08-23T00:13:03;8.10;;;7.40;;
19521;SDS011;9905;52.126;5.596;2022-08-23T00:15:30;9.85;;;8.23;;
19521;SDS011;9905;52.126;5.596;2022-08-23T00:17:57;8.25;;;7.53;;
19521;SDS011;9905;52.126;5.596;2022-08-23T00:20:24;8.38;;;7.75;;
19521;SDS011;9905;52.126;5.596;2022-08-23T00:22:51;10.10;;;7.68;;
19521;SDS011;9905;52.126;5.596;2022-08-23T00:25:19;8.63;;;7.80;;
19521;SDS011;9905;52.126;5.596;2022-08-23T00:27:46;9.35;;;7.88;;
19521;SDS011;9905;52.126;5.596;2022-08-23T00:30:13;9.13;;;8.23;;
19521;SDS011;9905;52.126;5.596;2022-08-23T00:32:41;8.90;;;8.07;;
19521;SDS011;9905;52.126;5.596;2022-08-23T00:35:09;8.95;;;7.88;;
19521;SDS011;9905;52.126;5.596;2022-08-23T00:37:37;8.95;;;8.15;;
19521;SDS011;9905;52.126;5.596;2022-08-23T00:40:04;8.88;;;8.15;;
19521;SDS011;9905;52.126;5.596;2022-08-23T00:42:37;8.85;;;8.05;;
19521;SDS011;9905;52.126;5.596;2022-08-23T00:45:26;8.35;;;7.55;;
19521;SDS011;9905;52.126;5.596;2022-08-23T00:48:15;8.32;;;7.47;;
19521;SDS011;9905;52.126;5.596;2022-08-23T00:50:43;8.85;;;8.13;;
19521;SDS011;9905;52.126;5.596;2022-08-23T00:53:15;8.63;;;7.93;;
19521;SDS011;9905;52.126;5.596;2022-08-23T00:55:45;8.40;;;7.90;;
19521;SDS011;9905;52.126;5.596;2022-08-23T00:58:15;9.23;;;8.50;;
19521;SDS011;9905;52.126;5.596;2022-08-23T01:00:44;7.88;;;7.38;;
19521;SDS011;9905;52.126;5.596;2022-08-23T01:03:12;8.73;;;8.07;;
19521;SDS011;9905;52.126;5.596;2022-08-23T01:05:41;9.32;;;8.48;;
19521;SDS011;9905;52.126;5.596;2022-08-23T01:08:12;8.98;;;8.10;;
19521;SDS011;9905;52.126;5.596;2022-08-23T01:10:41;8.80;;;8.13;;
19521;SDS011;9905;52.126;5.596;2022-08-23T01:13:15;9.10;;;8.38;;
19521;SDS011;9905;52.126;5.596;2022-08-23T01:15:46;9.00;;;8.13;;
19521;SDS011;9905;52.126;5.596;2022-08-23T01:18:21;8.65;;;7.90;;
19521;SDS011;9905;52.126;5.596;2022-08-23T01:20:53;8.90;;;8.10;;
19521;SDS011;9905;52.126;5.596;2022-08-23T01:23:28;9.65;;;8.80;;
19521;SDS011;9905;52.126;5.596;2022-08-23T01:26:00;9.27;;;8.60;;
19521;SDS011;9905;52.126;5.596;2022-08-23T01:28:28;8.98;;;8.10;;
19521;SDS011;9905;52.126;5.596;2022-08-23T01:30:55;9.40;;;8.10;;
19521;SDS011;9905;52.126;5.596;2022-08-23T01:33:22;9.25;;;8.50;;
19521;SDS011;9905;52.126;5.596;2022-08-23T01:35:50;9.15;;;8.40;;
19521;SDS011;9905;52.126;5.596;2022-08-23T01:38:18;9.00;;;8.30;;
19521;SDS011;9905;52.126;5.596;2022-08-23T01:40:47;9.35;;;8.43;;
19521;SDS011;9905;52.126;5.596;2022-08-23T01:43:14;9.23;;;8.30;;
19521;SDS011;9905;52.126;5.596;2022-08-23T01:45:44;9.73;;;8.93;;
19521;SDS011;9905;52.126;5.596;2022-08-23T01:48:11;9.50;;;8.77;;
19521;SDS011;9905;52.126;5.596;2022-08-23T01:50:39;10.43;;;8.50;;
19521;SDS011;9905;52.126;5.596;2022-08-23T01:53:06;8.73;;;7.70;;
19521;SDS011;9905;52.126;5.596;2022-08-23T01:55:33;9.63;;;8.07;;
19521;SDS011;9905;52.126;5.596;2022-08-23T01:58:03;8.95;;;8.07;;
19521;SDS011;9905;52.126;5.596;2022-08-23T02:00:32;9.75;;;8.88;;
19521;SDS011;9905;52.126;5.596;2022-08-23T02:03:01;8.55;;;8.02;;
19521;SDS011;9905;52.126;5.596;2022-08-23T02:05:28;9.38;;;8.73;;
19521;SDS011;9905;52.126;5.596;2022-08-23T02:07:55;8.95;;;8.30;;
19521;SDS011;9905;52.126;5.596;2022-08-23T02:10:43;9.38;;;8.57;;
19521;SDS011;9905;52.126;5.596;2022-08-23T02:13:11;9.07;;;8.48;;
19521;SDS011;9905;52.126;5.596;2022-08-23T02:15:38;9.55;;;8.82;;
19521;SDS011;9905;52.126;5.596;2022-08-23T02:18:07;11.80;;;8.60;;
19521;SDS011;9905;52.126;5.596;2022-08-23T02:20:34;9.73;;;8.93;;
19521;SDS011;9905;52.126;5.596;2022-08-23T02:23:01;9.07;;;8.57;;
19521;SDS011;9905;52.126;5.596;2022-08-23T02:25:28;8.90;;;8.23;;
19521;SDS011;9905;52.126;5.596;2022-08-23T02:27:55;10.88;;;9.77;;
19521;SDS011;9905;52.126;5.596;2022-08-23T02:30:23;9.52;;;8.82;;
19521;SDS011;9905;52.126;5.596;2022-08-23T02:32:49;9.50;;;8.80;;
19521;SDS011;9905;52.126;5.596;2022-08-23T02:35:16;9.07;;;8.43;;
19521;SDS011;9905;52.126;5.596;2022-08-23T02:37:43;10.02;;;9.05;;
19521;SDS011;9905;52.126;5.596;2022-08-23T02:40:10;10.73;;;9.35;;
19521;SDS011;9905;52.126;5.596;2022-08-23T02:42:36;10.45;;;9.35;;
19521;SDS011;9905;52.126;5.596;2022-08-23T02:45:04;9.30;;;8.48;;
19521;SDS011;9905;52.126;5.596;2022-08-23T02:47:33;9.38;;;8.68;;
19521;SDS011;9905;52.126;5.596;2022-08-23T02:50:01;10.00;;;9.07;;
19521;SDS011;9905;52.126;5.596;2022-08-23T02:52:28;9.90;;;9.05;;
19521;SDS011;9905;52.126;5.596;2022-08-23T02:54:55;10.07;;;9.27;;
19521;SDS011;9905;52.126;5.596;2022-08-23T02:57:21;9.68;;;8.95;;
19521;SDS011;9905;52.126;5.596;2022-08-23T02:59:48;8.98;;;8.38;;
19521;SDS011;9905;52.126;5.596;2022-08-23T03:02:16;9.57;;;8.75;;
19521;SDS011;9905;52.126;5.596;2022-08-23T03:04:44;9.60;;;8.65;;
19521;SDS011;9905;52.126;5.596;2022-08-23T03:07:11;10.38;;;8.95;;
19521;SDS011;9905;52.126;5.596;2022-08-23T03:09:37;10.13;;;9.25;;
19521;SDS011;9905;52.126;5.596;2022-08-23T03:12:04;11.35;;;10.20;;
19521;SDS011;9905;52.126;5.596;2022-08-23T03:14:31;9.07;;;8.43;;
19521;SDS011;9905;52.126;5.596;2022-08-23T03:16:59;10.05;;;9.18;;
19521;SDS011;9905;52.126;5.596;2022-08-23T03:19:25;10.05;;;9.15;;
19521;SDS011;9905;52.126;5.596;2022-08-23T03:21:53;9.82;;;9.05;;
19521;SDS011;9905;52.126;5.596;2022-08-23T03:24:20;8.77;;;8.18;;
19521;SDS011;9905;52.126;5.596;2022-08-23T03:26:47;10.20;;;9.48;;
19521;SDS011;9905;52.126;5.596;2022-08-23T03:29:14;9.43;;;8.75;;
19521;SDS011;9905;52.126;5.596;2022-08-23T03:31:43;9.82;;;9.05;;
19521;SDS011;9905;52.126;5.596;2022-08-23T03:34:10;10.35;;;9.15;;
19521;SDS011;9905;52.126;5.596;2022-08-23T03:36:37;10.07;;;9.27;;
19521;SDS011;9905;52.126;5.596;2022-08-23T03:39:05;10.20;;;9.50;;
19521;SDS011;9905;52.126;5.596;2022-08-23T03:41:32;10.85;;;9.95;;
19521;SDS011;9905;52.126;5.596;2022-08-23T03:43:59;10.40;;;9.50;;
19521;SDS011;9905;52.126;5.596;2022-08-23T03:46:25;10.00;;;9.30;;
19521;SDS011;9905;52.126;5.596;2022-08-23T03:48:53;10.40;;;9.40;;
19521;SDS011;9905;52.126;5.596;2022-08-23T03:51:22;9.82;;;9.18;;
19521;SDS011;9905;52.126;5.596;2022-08-23T03:53:49;10.35;;;9.48;;
19521;SDS011;9905;52.126;5.596;2022-08-23T03:56:21;10.15;;;9.32;;
19521;SDS011;9905;52.126;5.596;2022-08-23T03:58:50;10.43;;;9.60;;
19521;SDS011;9905;52.126;5.596;2022-08-23T04:01:17;10.85;;;10.05;;
19521;SDS011;9905;52.126;5.596;2022-08-23T04:03:44;10.82;;;9.75;;
19521;SDS011;9905;52.126;5.596;2022-08-23T04:06:11;12.07;;;9.63;;
19521;SDS011;9905;52.126;5.596;2022-08-23T04:08:38;10.68;;;9.85;;
19521;SDS011;9905;52.126;5.596;2022-08-23T04:11:05;10.25;;;9.25;;
19521;SDS011;9905;52.126;5.596;2022-08-23T04:13:34;10.32;;;9.43;;
19521;SDS011;9905;52.126;5.596;2022-08-23T04:16:01;10.30;;;9.35;;
19521;SDS011;9905;52.126;5.596;2022-08-23T04:18:29;10.48;;;9.43;;
19521;SDS011;9905;52.126;5.596;2022-08-23T04:20:57;10.35;;;9.57;;
19521;SDS011;9905;52.126;5.596;2022-08-23T04:23:24;10.68;;;9.80;;
19521;SDS011;9905;52.126;5.596;2022-08-23T04:25:52;12.73;;;11.55;;
19521;SDS011;9905;52.126;5.596;2022-08-23T04:28:19;12.80;;;11.40;;
19521;SDS011;9905;52.126;5.596;2022-08-23T04:30:47;12.95;;;11.70;;
19521;SDS011;9905;52.126;5.596;2022-08-23T04:33:14;12.18;;;11.00;;
19521;SDS011;9905;52.126;5.596;2022-08-23T04:35:41;12.82;;;11.82;;
19521;SDS011;9905;52.126;5.596;2022-08-23T04:38:08;15.18;;;12.40;;
19521;SDS011;9905;52.126;5.596;2022-08-23T04:40:35;13.77;;;12.38;;
19521;SDS011;9905;52.126;5.596;2022-08-23T04:43:19;12.43;;;11.40;;
19521;SDS011;9905;52.126;5.596;2022-08-23T04:45:47;12.98;;;11.88;;
19521;SDS011;9905;52.126;5.596;2022-08-23T04:48:14;12.07;;;11.15;;
19521;SDS011;9905;52.126;5.596;2022-08-23T04:50:41;13.07;;;11.80;;
19521;SDS011;9905;52.126;5.596;2022-08-23T04:53:08;13.82;;;12.60;;
19521;SDS011;9905;52.126;5.596;2022-08-23T04:55:35;14.43;;;13.13;;
19521;SDS011;9905;52.126;5.596;2022-08-23T04:58:02;14.18;;;12.00;;
19521;SDS011;9905;52.126;5.596;2022-08-23T05:00:29;13.07;;;11.98;;
19521;SDS011;9905;52.126;5.596;2022-08-23T05:02:57;13.50;;;12.35;;
19521;SDS011;9905;52.126;5.596;2022-08-23T05:05:24;13.27;;;12.13;;
19521;SDS011;9905;52.126;5.596;2022-08-23T05:07:52;14.40;;;13.23;;
19521;SDS011;9905;52.126;5.596;2022-08-23T05:10:19;15.93;;;14.20;;
19521;SDS011;9905;52.126;5.596;2022-08-23T05:12:46;15.23;;;13.65;;
19521;SDS011;9905;52.126;5.596;2022-08-23T05:15:13;15.13;;;13.75;;
19521;SDS011;9905;52.126;5.596;2022-08-23T05:17:39;14.60;;;12.85;;
19521;SDS011;9905;52.126;5.596;2022-08-23T05:20:08;14.00;;;12.68;;
19521;SDS011;9905;52.126;5.596;2022-08-23T05:22:36;14.90;;;13.65;;
19521;SDS011;9905;52.126;5.596;2022-08-23T05:25:05;13.90;;;12.70;;
19521;SDS011;9905;52.126;5.596;2022-08-23T05:27:32;15.40;;;13.98;;
19521;SDS011;9905;52.126;5.596;2022-08-23T05:29:59;14.77;;;13.38;;
19521;SDS011;9905;52.126;5.596;2022-08-23T05:32:26;16.63;;;14.95;;
19521;SDS011;9905;52.126;5.596;2022-08-23T05:34:53;20.77;;;16.88;;
19521;SDS011;9905;52.126;5.596;2022-08-23T05:37:21;22.35;;;18.25;;
19521;SDS011;9905;52.126;5.596;2022-08-23T05:39:48;19.17;;;16.70;;
19521;SDS011;9905;52.126;5.596;2022-08-23T05:42:15;21.35;;;15.95;;
19521;SDS011;9905;52.126;5.596;2022-08-23T05:44:42;16.05;;;14.30;;
19521;SDS011;9905;52.126;5.596;2022-08-23T05:47:10;15.82;;;13.88;;
19521;SDS011;9905;52.126;5.596;2022-08-23T05:49:38;16.33;;;14.55;;
19521;SDS011;9905;52.126;5.596;2022-08-23T05:52:05;14.48;;;13.05;;
19521;SDS011;9905;52.126;5.596;2022-08-23T05:54:35;15.63;;;14.05;;
19521;SDS011;9905;52.126;5.596;2022-08-23T05:57:03;15.05;;;13.52;;
19521;SDS011;9905;52.126;5.596;2022-08-23T05:59:30;14.07;;;12.90;;
19521;SDS011;9905;52.126;5.596;2022-08-23T06:01:57;14.45;;;13.15;;
19521;SDS011;9905;52.126;5.596;2022-08-23T06:04:24;14.48;;;13.35;;
19521;SDS011;9905;52.126;5.596;2022-08-23T06:06:51;16.25;;;13.07;;
19521;SDS011;9905;52.126;5.596;2022-08-23T06:09:17;13.25;;;12.00;;
19521;SDS011;9905;52.126;5.596;2022-08-23T06:11:46;16.20;;;13.30;;
19521;SDS011;9905;52.126;5.596;2022-08-23T06:14:13;17.73;;;12.48;;
19521;SDS011;9905;52.126;5.596;2022-08-23T06:16:42;16.45;;;13.27;;
19521;SDS011;9905;52.126;5.596;2022-08-23T06:19:10;13.88;;;12.77;;
19521;SDS011;9905;52.126;5.596;2022-08-23T06:21:37;14.95;;;13.30;;
19521;SDS011;9905;52.126;5.596;2022-08-23T06:24:05;14.50;;;13.32;;
19521;SDS011;9905;52.126;5.596;2022-08-23T06:26:32;14.82;;;13.50;;
19521;SDS011;9905;52.126;5.596;2022-08-23T06:29:04;15.65;;;13.68;;
19521;SDS011;9905;52.126;5.596;2022-08-23T06:31:32;16.80;;;14.60;;
19521;SDS011;9905;52.126;5.596;2022-08-23T06:34:13;18.35;;;13.77;;
19521;SDS011;9905;52.126;5.596;2022-08-23T06:36:45;15.65;;;14.35;;
19521;SDS011;9905;52.126;5.596;2022-08-23T06:39:12;17.23;;;15.10;;
19521;SDS011;9905;52.126;5.596;2022-08-23T06:41:40;15.80;;;14.13;;
19521;SDS011;9905;52.126;5.596;2022-08-23T06:44:08;15.55;;;13.93;;
19521;SDS011;9905;52.126;5.596;2022-08-23T06:46:36;17.25;;;13.55;;
19521;SDS011;9905;52.126;5.596;2022-08-23T06:49:03;16.98;;;13.70;;
19521;SDS011;9905;52.126;5.596;2022-08-23T06:51:31;15.40;;;13.85;;
19521;SDS011;9905;52.126;5.596;2022-08-23T06:54:00;14.20;;;12.82;;
19521;SDS011;9905;52.126;5.596;2022-08-23T06:56:29;14.25;;;12.95;;
19521;SDS011;9905;52.126;5.596;2022-08-23T06:58:56;15.05;;;13.60;;
19521;SDS011;9905;52.126;5.596;2022-08-23T07:01:26;14.52;;;13.18;;
19521;SDS011;9905;52.126;5.596;2022-08-23T07:03:57;15.25;;;13.85;;
19521;SDS011;9905;52.126;5.596;2022-08-23T07:06:25;15.07;;;13.75;;
19521;SDS011;9905;52.126;5.596;2022-08-23T07:08:53;14.32;;;13.18;;
19521;SDS011;9905;52.126;5.596;2022-08-23T07:11:20;15.23;;;13.88;;
19521;SDS011;9905;52.126;5.596;2022-08-23T07:13:47;14.75;;;13.43;;
19521;SDS011;9905;52.126;5.596;2022-08-23T07:16:16;14.18;;;12.90;;
19521;SDS011;9905;52.126;5.596;2022-08-23T07:18:46;13.50;;;12.20;;
19521;SDS011;9905;52.126;5.596;2022-08-23T07:21:14;14.30;;;12.98;;
19521;SDS011;9905;52.126;5.596;2022-08-23T07:23:41;13.68;;;12.40;;
19521;SDS011;9905;52.126;5.596;2022-08-23T07:26:10;13.88;;;12.77;;
19521;SDS011;9905;52.126;5.596;2022-08-23T07:28:39;13.30;;;12.10;;
19521;SDS011;9905;52.126;5.596;2022-08-23T07:31:07;12.60;;;11.55;;
19521;SDS011;9905;52.126;5.596;2022-08-23T07:33:35;13.50;;;12.30;;
19521;SDS011;9905;52.126;5.596;2022-08-23T07:36:03;13.88;;;12.43;;
19521;SDS011;9905;52.126;5.596;2022-08-23T07:38:31;12.68;;;11.50;;
19521;SDS011;9905;52.126;5.596;2022-08-23T07:40:59;13.15;;;11.85;;
19521;SDS011;9905;52.126;5.596;2022-08-23T07:43:25;13.57;;;12.30;;
19521;SDS011;9905;52.126;5.596;2022-08-23T07:45:52;14.48;;;13.10;;
19521;SDS011;9905;52.126;5.596;2022-08-23T07:48:19;13.88;;;12.57;;
19521;SDS011;9905;52.126;5.596;2022-08-23T07:50:50;14.18;;;12.80;;
19521;SDS011;9905;52.126;5.596;2022-08-23T07:53:19;14.00;;;12.50;;
19521;SDS011;9905;52.126;5.596;2022-08-23T07:55:46;14.18;;;12.95;;
19521;SDS011;9905;52.126;5.596;2022-08-23T07:58:12;15.00;;;13.57;;
19521;SDS011;9905;52.126;5.596;2022-08-23T08:00:39;14.90;;;13.32;;
19521;SDS011;9905;52.126;5.596;2022-08-23T08:03:06;15.48;;;13.95;;
19521;SDS011;9905;52.126;5.596;2022-08-23T08:05:34;15.63;;;14.10;;
19521;SDS011;9905;52.126;5.596;2022-08-23T08:08:01;15.40;;;13.93;;
19521;SDS011;9905;52.126;5.596;2022-08-23T08:10:30;16.90;;;13.55;;
19521;SDS011;9905;52.126;5.596;2022-08-23T08:12:57;15.55;;;13.65;;
19521;SDS011;9905;52.126;5.596;2022-08-23T08:15:24;18.55;;;14.13;;
19521;SDS011;9905;52.126;5.596;2022-08-23T08:17:51;16.23;;;13.85;;
19521;SDS011;9905;52.126;5.596;2022-08-23T08:20:18;14.77;;;13.40;;
19521;SDS011;9905;52.126;5.596;2022-08-23T08:22:45;14.23;;;12.57;;
19521;SDS011;9905;52.126;5.596;2022-08-23T08:25:13;13.57;;;11.95;;
19521;SDS011;9905;52.126;5.596;2022-08-23T08:27:41;13.73;;;12.43;;
19521;SDS011;9905;52.126;5.596;2022-08-23T08:30:09;15.50;;;12.77;;
19521;SDS011;9905;52.126;5.596;2022-08-23T08:32:37;14.65;;;11.85;;
19521;SDS011;9905;52.126;5.596;2022-08-23T08:35:05;13.18;;;11.77;;
19521;SDS011;9905;52.126;5.596;2022-08-23T08:37:32;12.48;;;11.23;;
19521;SDS011;9905;52.126;5.596;2022-08-23T08:40:00;13.88;;;11.88;;
19521;SDS011;9905;52.126;5.596;2022-08-23T08:42:40;18.85;;;12.82;;
19521;SDS011;9905;52.126;5.596;2022-08-23T08:45:18;15.27;;;12.57;;
19521;SDS011;9905;52.126;5.596;2022-08-23T08:47:50;14.80;;;12.45;;
19521;SDS011;9905;52.126;5.596;2022-08-23T08:50:22;13.98;;;11.88;;
19521;SDS011;9905;52.126;5.596;2022-08-23T08:52:54;13.18;;;11.93;;
19521;SDS011;9905;52.126;5.596;2022-08-23T08:55:27;13.13;;;11.00;;
19521;SDS011;9905;52.126;5.596;2022-08-23T08:57:58;13.48;;;12.05;;
19521;SDS011;9905;52.126;5.596;2022-08-23T09:00:30;12.63;;;11.48;;
19521;SDS011;9905;52.126;5.596;2022-08-23T09:02:59;12.35;;;11.20;;
19521;SDS011;9905;52.126;5.596;2022-08-23T09:05:30;13.88;;;11.65;;
19521;SDS011;9905;52.126;5.596;2022-08-23T09:08:05;14.57;;;11.93;;
19521;SDS011;9905;52.126;5.596;2022-08-23T09:10:44;10.30;;;9.50;;
19521;SDS011;9905;52.126;5.596;2022-08-23T09:13:27;11.90;;;10.65;;
19521;SDS011;9905;52.126;5.596;2022-08-23T09:16:09;12.43;;;10.32;;
19521;SDS011;9905;52.126;5.596;2022-08-23T09:18:46;12.77;;;10.32;;
19521;SDS011;9905;52.126;5.596;2022-08-23T09:21:13;14.73;;;11.43;;
19521;SDS011;9905;52.126;5.596;2022-08-23T09:23:42;11.75;;;10.57;;
19521;SDS011;9905;52.126;5.596;2022-08-23T09:26:15;10.63;;;9.65;;
19521;SDS011;9905;52.126;5.596;2022-08-23T09:28:45;11.63;;;9.82;;
19521;SDS011;9905;52.126;5.596;2022-08-23T09:31:17;9.63;;;8.65;;
19521;SDS011;9905;52.126;5.596;2022-08-23T09:34:01;8.82;;;7.95;;
19521;SDS011;9905;52.126;5.596;2022-08-23T09:36:30;9.30;;;7.40;;
19521;SDS011;9905;52.126;5.596;2022-08-23T09:38:59;8.98;;;8.15;;
19521;SDS011;9905;52.126;5.596;2022-08-23T09:41:31;12.20;;;8.23;;
19521;SDS011;9905;52.126;5.596;2022-08-23T09:44:03;12.13;;;8.55;;
19521;SDS011;9905;52.126;5.596;2022-08-23T09:46:32;9.50;;;8.65;;
19521;SDS011;9905;52.126;5.596;2022-08-23T09:49:19;8.80;;;7.82;;
19521;SDS011;9905;52.126;5.596;2022-08-23T09:51:48;9.00;;;8.27;;
19521;SDS011;9905;52.126;5.596;2022-08-23T09:54:17;11.68;;;8.93;;
19521;SDS011;9905;52.126;5.596;2022-08-23T09:56:49;8.75;;;7.90;;
19521;SDS011;9905;52.126;5.596;2022-08-23T09:59:20;8.20;;;7.40;;
19521;SDS011;9905;52.126;5.596;2022-08-23T10:02:00;11.52;;;9.93;;
19521;SDS011;9905;52.126;5.596;2022-08-23T10:04:29;11.73;;;8.93;;
19521;SDS011;9905;52.126;5.596;2022-08-23T10:07:19;9.73;;;8.82;;
19521;SDS011;9905;52.126;5.596;2022-08-23T10:09:51;9.70;;;8.75;;
19521;SDS011;9905;52.126;5.596;2022-08-23T10:12:18;8.10;;;7.40;;
19521;SDS011;9905;52.126;5.596;2022-08-23T10:14:46;7.47;;;6.75;;
19521;SDS011;9905;52.126;5.596;2022-08-23T10:17:25;9.93;;;7.70;;
19521;SDS011;9905;52.126;5.596;2022-08-23T10:20:00;9.82;;;8.68;;
19521;SDS011;9905;52.126;5.596;2022-08-23T10:22:47;10.05;;;8.05;;
19521;SDS011;9905;52.126;5.596;2022-08-23T10:25:21;7.50;;;6.80;;
19521;SDS011;9905;52.126;5.596;2022-08-23T10:28:00;8.05;;;7.30;;
19521;SDS011;9905;52.126;5.596;2022-08-23T10:30:56;7.00;;;6.35;;
19521;SDS011;9905;52.126;5.596;2022-08-23T10:33:28;7.88;;;7.03;;
19521;SDS011;9905;52.126;5.596;2022-08-23T10:36:05;9.40;;;8.18;;
19521;SDS011;9905;52.126;5.596;2022-08-23T10:38:40;9.35;;;7.80;;
19521;SDS011;9905;52.126;5.596;2022-08-23T10:44:14;7.68;;;6.80;;
19521;SDS011;9905;52.126;5.596;2022-08-23T10:46:52;8.82;;;7.25;;
19521;SDS011;9905;52.126;5.596;2022-08-23T10:49:30;7.63;;;6.65;;
19521;SDS011;9905;52.126;5.596;2022-08-23T10:52:00;6.45;;;5.88;;
19521;SDS011;9905;52.126;5.596;2022-08-23T10:54:31;6.22;;;5.20;;
19521;SDS011;9905;52.126;5.596;2022-08-23T10:57:10;6.70;;;6.15;;
19521;SDS011;9905;52.126;5.596;2022-08-23T10:59:41;6.00;;;5.35;;
19521;SDS011;9905;52.126;5.596;2022-08-23T11:02:16;6.72;;;6.10;;
19521;SDS011;9905;52.126;5.596;2022-08-23T11:04:50;7.93;;;5.85;;
19521;SDS011;9905;52.126;5.596;2022-08-23T11:07:25;7.20;;;6.15;;
19521;SDS011;9905;52.126;5.596;2022-08-23T11:09:54;5.25;;;4.85;;
19521;SDS011;9905;52.126;5.596;2022-08-23T11:12:32;6.05;;;5.45;;
19521;SDS011;9905;52.126;5.596;2022-08-23T11:15:10;5.20;;;4.70;;
19521;SDS011;9905;52.126;5.596;2022-08-23T11:17:58;7.25;;;3.85;;
19521;SDS011;9905;52.126;5.596;2022-08-23T11:23:34;3.88;;;3.35;;
19521;SDS011;9905;52.126;5.596;2022-08-23T11:26:07;3.15;;;2.85;;
19521;SDS011;9905;52.126;5.596;2022-08-23T11:28:38;4.88;;;3.05;;
19521;SDS011;9905;52.126;5.596;2022-08-23T11:31:20;4.43;;;2.70;;
19521;SDS011;9905;52.126;5.596;2022-08-23T11:33:52;2.42;;;2.22;;
19521;SDS011;9905;52.126;5.596;2022-08-23T11:36:27;3.47;;;2.65;;
19521;SDS011;9905;52.126;5.596;2022-08-23T11:39:07;3.58;;;2.63;;
19521;SDS011;9905;52.126;5.596;2022-08-23T11:41:35;4.45;;;2.92;;
19521;SDS011;9905;52.126;5.596;2022-08-23T11:44:32;3.88;;;2.70;;
19521;SDS011;9905;52.126;5.596;2022-08-23T11:47:02;5.32;;;3.28;;
19521;SDS011;9905;52.126;5.596;2022-08-23T11:49:37;7.63;;;3.38;;
19521;SDS011;9905;52.126;5.596;2022-08-23T11:55:22;3.60;;;3.03;;
19521;SDS011;9905;52.126;5.596;2022-08-23T11:58:14;3.72;;;3.10;;
19521;SDS011;9905;52.126;5.596;2022-08-23T12:01:02;4.03;;;2.70;;
19521;SDS011;9905;52.126;5.596;2022-08-23T12:03:32;3.42;;;2.53;;
19521;SDS011;9905;52.126;5.596;2022-08-23T12:06:14;3.58;;;3.25;;
19521;SDS011;9905;52.126;5.596;2022-08-23T12:09:03;3.47;;;3.15;;
19521;SDS011;9905;52.126;5.596;2022-08-23T12:14:35;5.40;;;3.05;;
19521;SDS011;9905;52.126;5.596;2022-08-23T12:20:21;3.70;;;2.25;;
19521;SDS011;9905;52.126;5.596;2022-08-23T12:22:55;6.53;;;2.85;;
19521;SDS011;9905;52.126;5.596;2022-08-23T12:25:30;4.13;;;2.47;;
19521;SDS011;9905;52.126;5.596;2022-08-23T12:27:58;3.35;;;2.20;;
19521;SDS011;9905;52.126;5.596;2022-08-23T12:30:33;4.00;;;2.35;;
19521;SDS011;9905;52.126;5.596;2022-08-23T12:33:07;4.78;;;3.00;;
19521;SDS011;9905;52.126;5.596;2022-08-23T12:35:49;3.22;;;2.30;;
19521;SDS011;9905;52.126;5.596;2022-08-23T12:38:23;2.60;;;1.88;;
19521;SDS011;9905;52.126;5.596;2022-08-23T12:41:11;4.13;;;2.05;;
19521;SDS011;9905;52.126;5.596;2022-08-23T12:43:52;4.90;;;2.08;;
19521;SDS011;9905;52.126;5.596;2022-08-23T12:46:31;4.10;;;2.45;;
19521;SDS011;9905;52.126;5.596;2022-08-23T12:49:01;2.90;;;2.10;;
19521;SDS011;9905;52.126;5.596;2022-08-23T12:51:29;2.92;;;2.00;;
19521;SDS011;9905;52.126;5.596;2022-08-23T12:53:57;4.32;;;2.30;;
19521;SDS011;9905;52.126;5.596;2022-08-23T12:56:40;2.60;;;2.00;;
19521;SDS011;9905;52.126;5.596;2022-08-23T12:59:23;4.80;;;2.58;;
19521;SDS011;9905;52.126;5.596;2022-08-23T13:01:57;3.38;;;2.33;;
19521;SDS011;9905;52.126;5.596;2022-08-23T13:04:24;4.20;;;2.50;;
19521;SDS011;9905;52.126;5.596;2022-08-23T13:06:53;5.25;;;2.78;;
19521;SDS011;9905;52.126;5.596;2022-08-23T13:09:23;3.20;;;2.17;;
19521;SDS011;9905;52.126;5.596;2022-08-23T13:11:53;2.30;;;2.10;;
19521;SDS011;9905;52.126;5.596;2022-08-23T13:14:22;2.67;;;2.15;;
19521;SDS011;9905;52.126;5.596;2022-08-23T13:16:50;4.43;;;2.05;;
19521;SDS011;9905;52.126;5.596;2022-08-23T13:19:18;2.00;;;1.90;;
19521;SDS011;9905;52.126;5.596;2022-08-23T13:24:35;3.53;;;2.00;;
19521;SDS011;9905;52.126;5.596;2022-08-23T13:27:20;2.33;;;1.63;;
19521;SDS011;9905;52.126;5.596;2022-08-23T13:29:51;2.42;;;1.95;;
19521;SDS011;9905;52.126;5.596;2022-08-23T13:32:25;1.80;;;1.70;;
19521;SDS011;9905;52.126;5.596;2022-08-23T13:34:54;2.15;;;1.65;;
19521;SDS011;9905;52.126;5.596;2022-08-23T13:37:42;3.88;;;1.85;;
19521;SDS011;9905;52.126;5.596;2022-08-23T13:40:13;3.38;;;1.75;;
19521;SDS011;9905;52.126;5.596;2022-08-23T13:42:47;2.28;;;1.90;;
19521;SDS011;9905;52.126;5.596;2022-08-23T13:45:18;2.40;;;1.90;;
19521;SDS011;9905;52.126;5.596;2022-08-23T13:47:48;2.38;;;1.90;;
19521;SDS011;9905;52.126;5.596;2022-08-23T13:50:21;3.00;;;1.80;;
19521;SDS011;9905;52.126;5.596;2022-08-23T13:52:49;2.83;;;2.00;;
19521;SDS011;9905;52.126;5.596;2022-08-23T13:55:16;7.70;;;2.35;;
19521;SDS011;9905;52.126;5.596;2022-08-23T13:57:43;2.20;;;1.98;;
19521;SDS011;9905;52.126;5.596;2022-08-23T14:00:11;2.22;;;2.03;;
19521;SDS011;9905;52.126;5.596;2022-08-23T14:02:38;3.25;;;1.80;;
19521;SDS011;9905;52.126;5.596;2022-08-23T14:05:06;2.70;;;2.00;;
19521;SDS011;9905;52.126;5.596;2022-08-23T14:07:34;4.82;;;2.15;;
19521;SDS011;9905;52.126;5.596;2022-08-23T14:10:00;2.05;;;1.77;;
19521;SDS011;9905;52.126;5.596;2022-08-23T14:12:29;2.33;;;1.70;;
19521;SDS011;9905;52.126;5.596;2022-08-23T14:14:58;2.88;;;2.15;;
19521;SDS011;9905;52.126;5.596;2022-08-23T14:17:28;2.45;;;2.00;;
19521;SDS011;9905;52.126;5.596;2022-08-23T14:20:05;2.97;;;2.08;;
19521;SDS011;9905;52.126;5.596;2022-08-23T14:22:35;2.53;;;1.80;;
19521;SDS011;9905;52.126;5.596;2022-08-23T14:25:02;2.28;;;2.00;;
19521;SDS011;9905;52.126;5.596;2022-08-23T14:27:29;2.33;;;1.88;;
19521;SDS011;9905;52.126;5.596;2022-08-23T14:29:56;3.22;;;2.28;;
19521;SDS011;9905;52.126;5.596;2022-08-23T14:32:23;3.53;;;2.13;;
19521;SDS011;9905;52.126;5.596;2022-08-23T14:34:51;2.33;;;2.13;;
19521;SDS011;9905;52.126;5.596;2022-08-23T14:37:18;2.13;;;1.75;;
19521;SDS011;9905;52.126;5.596;2022-08-23T14:39:44;2.58;;;2.20;;
19521;SDS011;9905;52.126;5.596;2022-08-23T14:42:11;2.58;;;2.08;;
19521;SDS011;9905;52.126;5.596;2022-08-23T14:44:40;3.70;;;2.10;;
19521;SDS011;9905;52.126;5.596;2022-08-23T14:47:06;2.65;;;1.70;;
19521;SDS011;9905;52.126;5.596;2022-08-23T14:49:33;1.90;;;1.70;;
19521;SDS011;9905;52.126;5.596;2022-08-23T14:52:02;1.70;;;1.60;;
19521;SDS011;9905;52.126;5.596;2022-08-23T14:54:29;3.97;;;1.65;;
19521;SDS011;9905;52.126;5.596;2022-08-23T14:56:55;2.80;;;2.00;;
19521;SDS011;9905;52.126;5.596;2022-08-23T14:59:22;1.80;;;1.60;;
19521;SDS011;9905;52.126;5.596;2022-08-23T15:01:49;1.80;;;1.58;;
19521;SDS011;9905;52.126;5.596;2022-08-23T15:04:20;2.85;;;2.08;;
19521;SDS011;9905;52.126;5.596;2022-08-23T15:06:48;1.92;;;1.83;;
19521;SDS011;9905;52.126;5.596;2022-08-23T15:09:17;2.00;;;1.90;;
19521;SDS011;9905;52.126;5.596;2022-08-23T15:11:45;2.65;;;2.00;;
19521;SDS011;9905;52.126;5.596;2022-08-23T15:14:12;1.80;;;1.70;;
19521;SDS011;9905;52.126;5.596;2022-08-23T15:16:38;2.88;;;2.05;;
19521;SDS011;9905;52.126;5.596;2022-08-23T15:19:05;1.85;;;1.50;;
19521;SDS011;9905;52.126;5.596;2022-08-23T15:21:32;2.55;;;1.55;;
19521;SDS011;9905;52.126;5.596;2022-08-23T15:23:59;1.88;;;1.70;;
19521;SDS011;9905;52.126;5.596;2022-08-23T15:26:27;3.33;;;1.90;;